Time;durP1;ratioP1;P1;durP2;ratioP2;P2;SDS_P1;SDS_P2;PMS_P1;PMS_P2;Temp;Humidity;BMP_temperature;BMP_pressure;BME280_temperature;BME280_humidity;BME280_pressure;Samples;Min_cycle;Max_cycle;Signal;HPM_P1;HPM_P2
2023/01/28 00:04:21;;;;;;;12.77;6.20;;;;;;;2.06;100.00;101088.16;21052388;28;20055;-68
2023/01/28 00:14:23;;;;;;;9.82;5.40;;;;;;;1.94;100.00;101072.28;21053628;28;20310;-67
2023/01/28 00:24:24;;;;;;;11.93;5.32;;;;;;;2.07;100.00;101063.19;21053265;28;20090;-68
2023/01/28 00:34:25;;;;;;;11.00;5.35;;;;;;;2.07;100.00;101068.38;21053790;28;20390;-68
2023/01/28 00:44:27;;;;;;;9.43;4.45;;;;;;;2.03;100.00;101068.25;21052904;28;20455;-69
2023/01/28 00:54:28;;;;;;;15.57;6.68;;;;;;;1.98;100.00;101059.50;21052022;28;20135;-68
2023/01/28 01:04:34;;;;;;;24.63;11.35;;;;;;;2.10;100.00;101058.97;21050985;28;20059;-68
2023/01/28 01:14:35;;;;;;;8.60;4.88;;;;;;;1.96;100.00;101063.72;21061203;28;20059;-68
2023/01/28 01:24:38;;;;;;;10.40;5.45;;;;;;;1.94;100.00;101077.44;21066488;28;20079;-68
2023/01/28 01:34:40;;;;;;;11.05;5.45;;;;;;;2.00;100.00;101068.16;21064694;28;20515;-68
2023/01/28 01:44:41;;;;;;;10.68;5.75;;;;;;;2.02;100.00;101071.69;21065162;28;20287;-69
2023/01/28 01:54:42;;;;;;;10.70;5.30;;;;;;;1.96;100.00;101076.66;21064769;28;20056;-67
2023/01/28 02:04:44;;;;;;;11.13;5.35;;;;;;;1.94;100.00;101074.88;21062685;28;20101;-67
2023/01/28 02:14:45;;;;;;;10.30;5.47;;;;;;;2.02;100.00;101070.81;21061920;28;20052;-67
2023/01/28 02:24:46;;;;;;;9.15;5.18;;;;;;;2.04;100.00;101076.88;21061372;28;20105;-68
2023/01/28 02:34:47;;;;;;;8.95;5.05;;;;;;;2.06;100.00;101067.50;21059297;28;20094;-68
2023/01/28 02:44:48;;;;;;;9.93;5.10;;;;;;;1.99;100.00;101061.25;21059793;28;20101;-68
2023/01/28 02:54:50;;;;;;;9.57;5.13;;;;;;;1.98;100.00;101068.97;21057013;28;20048;-68
2023/01/28 03:04:54;;;;;;;10.52;5.50;;;;;;;2.01;100.00;101076.78;21057476;28;20181;-69
2023/01/28 03:45:56;;;;;;;11.07;5.35;;;;;;;2.05;100.00;101091.53;21054240;28;20044;-68
2023/01/28 03:55:59;;;;;;;10.88;5.65;;;;;;;2.03;100.00;101103.56;21052496;28;20039;-68
2023/01/28 04:06:00;;;;;;;9.20;5.03;;;;;;;1.94;100.00;101111.03;21050043;28;20043;-67
2023/01/28 04:16:02;;;;;;;10.88;5.82;;;;;;;2.03;100.00;101111.31;21053908;28;20054;-68
2023/01/28 04:26:03;;;;;;;10.23;5.03;;;;;;;1.98;100.00;101124.06;21052913;28;20426;-67
2023/01/28 04:36:04;;;;;;;8.73;4.78;;;;;;;1.97;100.00;101129.19;21052289;28;20094;-69
2023/01/28 04:46:06;;;;;;;9.73;5.05;;;;;;;2.01;100.00;101126.75;21057640;28;20055;-67
2023/01/28 04:56:07;;;;;;;8.45;4.43;;;;;;;1.96;100.00;101123.13;21066866;28;20121;-67
2023/01/28 05:06:09;;;;;;;9.40;4.10;;;;;;;1.94;100.00;101129.97;21065425;28;20060;-67
2023/01/28 05:16:10;;;;;;;12.15;5.38;;;;;;;1.99;100.00;101133.56;21066103;28;20062;-66
2023/01/28 05:26:12;;;;;;;9.35;4.15;;;;;;;1.89;100.00;101141.88;21065908;28;20079;-66
2023/01/28 05:36:13;;;;;;;8.38;4.85;;;;;;;1.77;100.00;101150.13;21064344;28;20051;-66
2023/01/28 05:46:14;;;;;;;8.32;4.15;;;;;;;1.73;100.00;101156.00;21064079;28;20048;-66
2023/01/28 05:56:15;;;;;;;9.85;4.40;;;;;;;1.82;100.00;101164.84;21063868;28;20396;-66
2023/01/28 06:06:17;;;;;;;9.32;4.88;;;;;;;1.90;100.00;101173.72;21063197;28;20097;-66
2023/01/28 06:16:18;;;;;;;13.85;6.18;;;;;;;1.77;100.00;101188.84;21061803;28;20051;-67
2023/01/28 06:26:19;;;;;;;8.73;4.30;;;;;;;1.83;100.00;101197.59;21060882;28;20078;-67
2023/01/28 06:36:20;;;;;;;8.18;4.43;;;;;;;1.77;100.00;101222.41;21059440;28;20040;-67
2023/01/28 06:46:23;;;;;;;8.75;4.32;;;;;;;1.73;100.00;101223.13;21059561;28;20104;-67
2023/01/28 06:56:24;;;;;;;8.10;4.22;;;;;;;1.74;100.00;101230.03;21057819;28;20422;-67
2023/01/28 07:06:25;;;;;;;7.72;3.60;;;;;;;1.84;100.00;101244.13;21056238;28;20109;-67
2023/01/28 07:16:26;;;;;;;11.20;5.72;;;;;;;1.88;100.00;101245.13;21056953;28;20492;-69
2023/01/28 07:26:28;;;;;;;13.18;4.78;;;;;;;1.82;100.00;101250.06;21056123;28;20056;-69
2023/01/28 07:36:29;;;;;;;10.13;4.47;;;;;;;1.79;100.00;101249.13;21054315;28;20117;-67
2023/01/28 07:46:30;;;;;;;8.13;3.90;;;;;;;1.74;100.00;101266.19;21053242;28;20568;-67
2023/01/28 07:56:31;;;;;;;9.05;5.05;;;;;;;1.75;100.00;101273.09;21050787;28;20048;-68
2023/01/28 08:06:36;;;;;;;13.73;6.93;;;;;;;1.75;100.00;101283.41;21049702;28;20508;-68
2023/01/28 08:16:38;;;;;;;14.43;6.80;;;;;;;1.74;100.00;101297.16;21047797;28;20044;-67
2023/01/28 08:26:39;;;;;;;12.27;6.38;;;;;;;1.69;100.00;101288.38;21060508;28;20355;-68
2023/01/28 08:36:40;;;;;;;12.68;5.95;;;;;;;1.80;100.00;101297.34;21057140;28;20044;-68
2023/01/28 08:46:41;;;;;;;11.88;6.15;;;;;;;1.93;100.00;101293.50;21053640;28;20059;-68
2023/01/28 08:56:43;;;;;;;10.98;5.40;;;;;;;2.01;100.00;101292.06;21066147;28;20055;-68
2023/01/28 09:06:45;;;;;;;13.27;6.03;;;;;;;2.13;100.00;101307.06;21064157;28;20106;-67
2023/01/28 09:16:46;;;;;;;14.00;6.07;;;;;;;2.14;100.00;101303.66;21064670;28;20066;-68
2023/01/28 09:26:47;;;;;;;10.77;5.50;;;;;;;2.29;100.00;101314.47;21065416;28;20329;-67
2023/01/28 09:36:48;;;;;;;10.27;5.35;;;;;;;2.26;100.00;101319.56;21061346;28;20040;-67
2023/01/28 09:46:49;;;;;;;11.50;6.20;;;;;;;2.26;100.00;101324.75;21061687;28;20056;-68
2023/01/28 09:56:51;;;;;;;11.88;6.72;;;;;;;2.31;100.00;101346.44;21061458;28;20526;-69
2023/01/28 10:06:52;;;;;;;11.75;5.95;;;;;;;2.20;100.00;101347.78;21054956;28;20056;-68
2023/01/28 10:16:53;;;;;;;11.40;6.35;;;;;;;2.16;100.00;101348.53;21055352;28;20056;-70
2023/01/28 10:26:55;;;;;;;16.70;8.27;;;;;;;2.36;100.00;101335.38;21055392;28;20048;-68
2023/01/28 10:36:56;;;;;;;10.68;6.07;;;;;;;2.43;100.00;101333.03;21065847;22;20417;-70
2023/01/28 10:46:57;;;;;;;11.77;6.00;;;;;;;2.47;100.00;101334.00;21027943;28;20060;-68
2023/01/28 10:56:59;;;;;;;13.40;6.38;;;;;;;2.41;100.00;101337.28;21027414;28;20064;-67
2023/01/28 11:07:00;;;;;;;13.90;7.18;;;;;;;2.48;100.00;101351.25;21028016;28;20063;-74
2023/01/28 11:17:01;;;;;;;12.63;6.30;;;;;;;2.52;100.00;101347.94;21030954;28;20085;-75
2023/01/28 11:27:03;;;;;;;12.15;6.53;;;;;;;2.47;100.00;101349.50;21026767;28;20439;-76
2023/01/28 11:37:04;;;;;;;17.30;7.70;;;;;;;2.69;100.00;101353.69;21022214;28;20109;-77
2023/01/28 11:47:06;;;;;;;13.63;6.32;;;;;;;2.65;100.00;101360.44;21023861;28;20108;-77
2023/01/28 11:57:07;;;;;;;12.73;6.60;;;;;;;2.54;100.00;101352.34;21023247;28;20071;-77
2023/01/28 12:07:10;;;;;;;11.90;5.50;;;;;;;2.45;100.00;101348.59;21020044;28;20064;-77
2023/01/28 12:17:11;;;;;;;11.55;5.82;;;;;;;2.60;100.00;101336.16;20997038;28;20138;-77
2023/01/28 12:27:12;;;;;;;12.80;6.47;;;;;;;2.72;100.00;101331.34;21011897;28;20079;-77
2023/01/28 12:37:13;;;;;;;11.30;6.50;;;;;;;2.76;100.00;101333.22;21027036;28;20060;-77
2023/01/28 12:47:15;;;;;;;10.23;5.93;;;;;;;2.83;100.00;101322.25;21021906;28;20065;-77
2023/01/28 12:57:16;;;;;;;10.27;5.25;;;;;;;2.71;100.00;101324.44;21021480;28;20106;-78
2023/01/28 13:07:17;;;;;;;9.05;4.78;;;;;;;2.75;100.00;101310.78;21026528;28;20052;-77
2023/01/28 13:17:19;;;;;;;9.18;4.78;;;;;;;2.78;100.00;101321.22;21037693;28;20056;-78
2023/01/28 13:27:20;;;;;;;8.95;4.82;;;;;;;2.77;100.00;101334.09;21035063;28;20052;-77
2023/01/28 13:37:21;;;;;;;10.35;5.00;;;;;;;2.80;100.00;101327.31;21036152;28;20209;-76
2023/01/28 13:47:22;;;;;;;8.02;5.10;;;;;;;2.82;100.00;101335.97;21063169;28;20057;-77
2023/01/28 13:57:24;;;;;;;10.23;5.40;;;;;;;2.81;100.00;101341.13;21033518;28;20479;-77
2023/01/28 14:07:25;;;;;;;10.32;4.35;;;;;;;2.86;100.00;101362.81;21033563;28;20109;-76
2023/01/28 14:17:26;;;;;;;16.23;7.35;;;;;;;2.79;100.00;101372.09;21030967;28;20053;-76
2023/01/28 14:27:27;;;;;;;8.63;4.70;;;;;;;2.78;100.00;101388.47;21031898;28;20052;-76
2023/01/28 15:20:33;;;;;;;8.98;3.85;;;;;;;2.43;100.00;101420.03;21080374;28;20060;-81
2023/01/28 15:30:34;;;;;;;9.40;4.90;;;;;;;2.48;100.00;101428.81;21060357;28;20040;-81
2023/01/28 15:40:53;;;;;;;11.45;5.13;;;;;;;2.36;100.00;101439.63;21085627;28;20056;-81
2023/01/28 15:51:12;;;;;;;11.85;6.32;;;;;;;2.29;100.00;101443.69;21105654;28;20040;-81
2023/01/28 16:01:31;;;;;;;10.73;5.78;;;;;;;2.29;100.00;101432.47;21104502;28;20051;-80
2023/01/28 16:11:50;;;;;;;10.80;6.50;;;;;;;2.07;100.00;101441.19;21094226;28;20044;-80
2023/01/28 16:22:09;;;;;;;12.40;6.22;;;;;;;2.02;100.00;101447.91;21082795;28;20076;-80
2023/01/28 16:32:29;;;;;;;17.67;8.60;;;;;;;1.90;100.00;101448.34;21023252;28;20052;-81
2023/01/28 16:42:48;;;;;;;14.23;6.88;;;;;;;1.85;100.00;101447.28;21052616;28;20465;-82
2023/01/28 16:52:49;;;;;;;15.38;7.53;;;;;;;1.80;100.00;101449.69;21023854;28;20060;-81
2023/01/28 17:02:51;;;;;;;12.45;7.13;;;;;;;1.74;100.00;101482.16;21026313;28;20063;-81
2023/01/28 17:12:53;;;;;;;15.05;7.93;;;;;;;1.64;100.00;101475.78;21040737;28;20416;-81
2023/01/28 17:22:54;;;;;;;25.38;12.07;;;;;;;1.56;100.00;101487.50;21037802;28;20056;-81
2023/01/28 17:32:55;;;;;;;14.18;8.57;;;;;;;1.43;100.00;101488.72;21035026;28;20052;-81
2023/01/28 17:43:15;;;;;;;28.70;13.25;;;;;;;1.49;100.00;101501.03;21039536;28;20068;-81
2023/01/28 17:53:33;;;;;;;19.83;9.85;;;;;;;1.38;100.00;101510.03;21041851;28;20512;-82
2023/01/28 18:03:35;;;;;;;37.25;15.77;;;;;;;1.43;100.00;101517.13;21011315;28;20048;-82
2023/01/28 18:13:36;;;;;;;34.55;13.20;;;;;;;1.31;100.00;101526.97;21007817;28;20369;-82
2023/01/28 18:23:37;;;;;;;20.83;9.05;;;;;;;1.27;100.00;101541.44;21004279;28;20044;-82
2023/01/28 18:33:39;;;;;;;12.60;7.22;;;;;;;1.20;100.00;101552.34;20982799;28;20052;-82
2023/01/28 18:43:40;;;;;;;18.35;9.40;;;;;;;1.12;100.00;101545.97;20965776;23;20109;-70
2023/01/28 18:53:59;;;;;;;19.33;8.07;;;;;;;1.10;100.00;101544.16;21007510;23;20053;-72
2023/01/28 19:04:18;;;;;;;22.85;10.20;;;;;;;1.00;100.00;101545.47;20800098;28;20053;-71
2023/01/28 19:14:37;;;;;;;28.52;13.00;;;;;;;0.94;100.00;101551.25;20799866;28;20417;-70
2023/01/28 19:24:55;;;;;;;19.65;8.68;;;;;;;0.87;100.00;101548.38;20800593;28;20081;-70
2023/01/28 19:35:14;;;;;;;15.55;7.75;;;;;;;0.83;100.00;101557.66;20796897;28;20050;-70
2023/01/28 19:45:34;;;;;;;13.40;7.20;;;;;;;0.82;100.00;101575.66;20802515;28;20456;-70
2023/01/28 19:55:53;;;;;;;15.50;7.72;;;;;;;0.67;100.00;101587.06;20797490;28;20037;-70
2023/01/28 20:06:12;;;;;;;14.43;7.50;;;;;;;0.59;100.00;101613.31;20801019;28;20042;-70
2023/01/28 20:16:13;;;;;;;16.63;7.97;;;;;;;0.56;100.00;101614.06;20805095;28;20054;-70
2023/01/28 20:26:14;;;;;;;15.13;8.43;;;;;;;0.62;100.00;101629.78;20800721;28;20367;-70
2023/01/28 20:36:16;;;;;;;15.75;8.27;;;;;;;0.49;100.00;101627.50;20798882;28;20057;-70
2023/01/28 20:46:18;;;;;;;16.48;8.85;;;;;;;0.55;100.00;101627.75;20801129;28;20053;-69
2023/01/28 20:56:19;;;;;;;22.83;11.15;;;;;;;0.48;100.00;101630.91;20846009;28;20057;-71
2023/01/28 21:06:20;;;;;;;17.27;9.57;;;;;;;0.56;100.00;101629.53;20881820;28;20041;-70
2023/01/28 21:16:41;;;;;;;12.60;7.40;;;;;;;0.46;100.00;101637.66;20881385;28;20053;-70
2023/01/28 21:27:00;;;;;;;11.73;6.55;;;;;;;0.49;100.00;101648.13;20884342;28;20488;-70
2023/01/28 21:37:01;;;;;;;14.85;8.18;;;;;;;0.42;100.00;101653.78;20900983;28;20037;-70
2023/01/28 21:47:02;;;;;;;15.88;7.82;;;;;;;0.31;100.00;101647.28;20896529;28;20128;-70
2023/01/28 21:57:03;;;;;;;14.45;7.57;;;;;;;0.38;100.00;101652.75;20895336;28;20623;-70
2023/01/28 22:07:05;;;;;;;13.25;7.65;;;;;;;0.40;100.00;101658.00;20894544;28;20053;-71
2023/01/28 22:17:07;;;;;;;12.98;7.63;;;;;;;0.28;100.00;101652.28;20894095;28;20075;-71
2023/01/28 22:27:26;;;;;;;16.63;7.90;;;;;;;0.34;100.00;101657.72;20894194;28;20057;-70
2023/01/28 22:37:45;;;;;;;14.73;7.93;;;;;;;0.34;100.00;101622.53;20892359;28;20049;-71
2023/01/28 22:48:04;;;;;;;14.77;7.78;;;;;;;0.41;100.00;101628.84;20892658;28;20052;-71
2023/01/28 22:58:23;;;;;;;17.42;9.05;;;;;;;0.32;100.00;101623.28;20890511;28;20092;-71
2023/01/28 23:08:42;;;;;;;18.63;8.75;;;;;;;0.21;100.00;101620.22;20888602;28;20044;-71
2023/01/28 23:29:39;;;;;;;15.52;8.45;;;;;;;0.17;100.00;101608.88;20895355;28;20041;-72
2023/01/28 23:39:58;;;;;;;21.85;9.25;;;;;;;0.06;100.00;101619.50;20888819;28;20155;-72
2023/01/28 23:50:17;;;;;;;20.73;11.23;;;;;;;0.23;100.00;101614.31;20889445;28;20540;-71
